sensor_id;sensor_type;location;lat;lon;timestamp;P1;durP1;ratioP1;P2;durP2;ratioP2
12784;SDS011;6456;42.680;23.260;2023-05-10T00:02:14;5.53;;;5.03;;
12784;SDS011;6456;42.680;23.260;2023-05-10T00:04:43;5.73;;;5.23;;
12784;SDS011;6456;42.680;23.260;2023-05-10T00:07:16;5.60;;;5.10;;
12784;SDS011;6456;42.680;23.260;2023-05-10T00:09:44;6.47;;;5.70;;
12784;SDS011;6456;42.680;23.260;2023-05-10T00:12:13;6.80;;;6.20;;
12784;SDS011;6456;42.680;23.260;2023-05-10T00:14:40;5.90;;;5.40;;
12784;SDS011;6456;42.680;23.260;2023-05-10T00:17:08;6.77;;;5.53;;
12784;SDS011;6456;42.680;23.260;2023-05-10T00:19:35;5.63;;;5.13;;
12784;SDS011;6456;42.680;23.260;2023-05-10T00:22:02;5.97;;;5.47;;
12784;SDS011;6456;42.680;23.260;2023-05-10T00:24:31;5.67;;;5.10;;
12784;SDS011;6456;42.680;23.260;2023-05-10T00:26:58;5.93;;;5.30;;
12784;SDS011;6456;42.680;23.260;2023-05-10T00:29:25;6.20;;;5.60;;
12784;SDS011;6456;42.680;23.260;2023-05-10T00:31:55;5.90;;;5.40;;
12784;SDS011;6456;42.680;23.260;2023-05-10T00:34:22;5.10;;;4.70;;
12784;SDS011;6456;42.680;23.260;2023-05-10T00:36:52;6.10;;;5.60;;
12784;SDS011;6456;42.680;23.260;2023-05-10T00:39:22;6.10;;;5.50;;
12784;SDS011;6456;42.680;23.260;2023-05-10T00:41:50;6.37;;;5.77;;
12784;SDS011;6456;42.680;23.260;2023-05-10T00:44:17;6.20;;;5.60;;
12784;SDS011;6456;42.680;23.260;2023-05-10T00:46:44;5.67;;;5.13;;
12784;SDS011;6456;42.680;23.260;2023-05-10T00:49:12;5.90;;;5.40;;
12784;SDS011;6456;42.680;23.260;2023-05-10T00:51:41;6.23;;;5.73;;
12784;SDS011;6456;42.680;23.260;2023-05-10T00:54:11;6.77;;;6.17;;
12784;SDS011;6456;42.680;23.260;2023-05-10T00:56:40;6.70;;;6.10;;
12784;SDS011;6456;42.680;23.260;2023-05-10T00:59:15;6.97;;;6.27;;
12784;SDS011;6456;42.680;23.260;2023-05-10T01:01:47;6.83;;;6.13;;
12784;SDS011;6456;42.680;23.260;2023-05-10T01:04:22;6.70;;;6.10;;
12784;SDS011;6456;42.680;23.260;2023-05-10T01:06:50;6.10;;;5.60;;
12784;SDS011;6456;42.680;23.260;2023-05-10T01:09:18;6.43;;;5.93;;
12784;SDS011;6456;42.680;23.260;2023-05-10T01:11:48;6.67;;;6.07;;
12784;SDS011;6456;42.680;23.260;2023-05-10T01:14:18;6.67;;;6.07;;
12784;SDS011;6456;42.680;23.260;2023-05-10T01:16:46;6.90;;;6.30;;
12784;SDS011;6456;42.680;23.260;2023-05-10T01:19:17;6.30;;;5.70;;
12784;SDS011;6456;42.680;23.260;2023-05-10T01:21:48;6.93;;;6.33;;
12784;SDS011;6456;42.680;23.260;2023-05-10T01:27:45;7.10;;;6.50;;
12784;SDS011;6456;42.680;23.260;2023-05-10T01:33:22;7.13;;;6.53;;
12784;SDS011;6456;42.680;23.260;2023-05-10T01:35:55;7.20;;;6.50;;
12784;SDS011;6456;42.680;23.260;2023-05-10T01:38:29;7.20;;;6.57;;
12784;SDS011;6456;42.680;23.260;2023-05-10T01:41:07;6.40;;;5.90;;
12784;SDS011;6456;42.680;23.260;2023-05-10T01:43:43;6.43;;;5.87;;
12784;SDS011;6456;42.680;23.260;2023-05-10T01:46:20;6.20;;;5.60;;
12784;SDS011;6456;42.680;23.260;2023-05-10T01:48:55;5.63;;;5.13;;
12784;SDS011;6456;42.680;23.260;2023-05-10T01:51:26;5.20;;;4.73;;
12784;SDS011;6456;42.680;23.260;2023-05-10T01:53:59;5.27;;;4.77;;
12784;SDS011;6456;42.680;23.260;2023-05-10T01:56:29;5.00;;;4.50;;
12784;SDS011;6456;42.680;23.260;2023-05-10T01:58:58;4.83;;;4.40;;
12784;SDS011;6456;42.680;23.260;2023-05-10T02:01:27;4.73;;;4.33;;
12784;SDS011;6456;42.680;23.260;2023-05-10T02:04:04;4.93;;;4.53;;
12784;SDS011;6456;42.680;23.260;2023-05-10T02:06:49;4.30;;;4.00;;
12784;SDS011;6456;42.680;23.260;2023-05-10T02:09:27;4.90;;;4.43;;
12784;SDS011;6456;42.680;23.260;2023-05-10T02:12:01;4.70;;;4.30;;
12784;SDS011;6456;42.680;23.260;2023-05-10T02:14:31;5.33;;;4.23;;
12784;SDS011;6456;42.680;23.260;2023-05-10T02:17:02;4.30;;;3.97;;
12784;SDS011;6456;42.680;23.260;2023-05-10T02:19:33;4.13;;;3.83;;
12784;SDS011;6456;42.680;23.260;2023-05-10T02:22:03;3.70;;;3.40;;
12784;SDS011;6456;42.680;23.260;2023-05-10T02:24:31;4.10;;;3.80;;
12784;SDS011;6456;42.680;23.260;2023-05-10T02:27:00;3.80;;;3.50;;
12784;SDS011;6456;42.680;23.260;2023-05-10T02:29:29;3.90;;;3.57;;
12784;SDS011;6456;42.680;23.260;2023-05-10T02:31:57;4.03;;;3.73;;
12784;SDS011;6456;42.680;23.260;2023-05-10T02:34:26;4.40;;;4.10;;
12784;SDS011;6456;42.680;23.260;2023-05-10T02:36:56;3.97;;;3.67;;
12784;SDS011;6456;42.680;23.260;2023-05-10T02:39:24;3.80;;;3.50;;
12784;SDS011;6456;42.680;23.260;2023-05-10T02:41:55;5.83;;;4.57;;
12784;SDS011;6456;42.680;23.260;2023-05-10T02:44:23;4.40;;;4.00;;
12784;SDS011;6456;42.680;23.260;2023-05-10T02:46:56;4.40;;;4.00;;
12784;SDS011;6456;42.680;23.260;2023-05-10T02:49:23;4.50;;;3.97;;
12784;SDS011;6456;42.680;23.260;2023-05-10T02:51:51;4.50;;;4.10;;
12784;SDS011;6456;42.680;23.260;2023-05-10T02:54:32;4.40;;;4.00;;
12784;SDS011;6456;42.680;23.260;2023-05-10T02:57:05;3.87;;;3.57;;
12784;SDS011;6456;42.680;23.260;2023-05-10T02:59:40;4.60;;;4.13;;
12784;SDS011;6456;42.680;23.260;2023-05-10T03:02:08;5.17;;;3.90;;
12784;SDS011;6456;42.680;23.260;2023-05-10T03:04:41;4.80;;;4.40;;
12784;SDS011;6456;42.680;23.260;2023-05-10T03:07:12;4.83;;;4.33;;
12784;SDS011;6456;42.680;23.260;2023-05-10T03:09:41;4.50;;;4.10;;
12784;SDS011;6456;42.680;23.260;2023-05-10T03:12:11;4.80;;;4.40;;
12784;SDS011;6456;42.680;23.260;2023-05-10T03:14:49;4.50;;;4.10;;
12784;SDS011;6456;42.680;23.260;2023-05-10T03:17:28;4.60;;;4.20;;
12784;SDS011;6456;42.680;23.260;2023-05-10T03:20:03;4.30;;;3.97;;
12784;SDS011;6456;42.680;23.260;2023-05-10T03:22:36;5.27;;;4.10;;
12784;SDS011;6456;42.680;23.260;2023-05-10T03:25:06;5.17;;;4.60;;
12784;SDS011;6456;42.680;23.260;2023-05-10T03:27:36;5.33;;;4.83;;
12784;SDS011;6456;42.680;23.260;2023-05-10T03:30:07;4.80;;;4.30;;
12784;SDS011;6456;42.680;23.260;2023-05-10T03:32:36;4.63;;;3.73;;
12784;SDS011;6456;42.680;23.260;2023-05-10T03:35:06;4.90;;;4.40;;
12784;SDS011;6456;42.680;23.260;2023-05-10T03:37:34;6.23;;;4.53;;
12784;SDS011;6456;42.680;23.260;2023-05-10T03:40:01;5.27;;;3.93;;
12784;SDS011;6456;42.680;23.260;2023-05-10T03:42:30;4.30;;;3.90;;
12784;SDS011;6456;42.680;23.260;2023-05-10T03:44:57;4.27;;;3.87;;
12784;SDS011;6456;42.680;23.260;2023-05-10T03:47:24;4.93;;;4.10;;
12784;SDS011;6456;42.680;23.260;2023-05-10T03:49:51;7.03;;;4.00;;
12784;SDS011;6456;42.680;23.260;2023-05-10T03:52:19;3.93;;;3.63;;
12784;SDS011;6456;42.680;23.260;2023-05-10T03:54:46;4.70;;;3.67;;
12784;SDS011;6456;42.680;23.260;2023-05-10T03:57:13;4.50;;;3.77;;
12784;SDS011;6456;42.680;23.260;2023-05-10T03:59:41;4.50;;;4.10;;
12784;SDS011;6456;42.680;23.260;2023-05-10T04:02:08;4.07;;;3.77;;
12784;SDS011;6456;42.680;23.260;2023-05-10T04:04:35;4.27;;;3.87;;
12784;SDS011;6456;42.680;23.260;2023-05-10T04:07:02;4.93;;;4.00;;
12784;SDS011;6456;42.680;23.260;2023-05-10T04:09:29;4.60;;;4.13;;
12784;SDS011;6456;42.680;23.260;2023-05-10T04:11:56;4.83;;;4.33;;
12784;SDS011;6456;42.680;23.260;2023-05-10T04:14:24;5.03;;;4.47;;
12784;SDS011;6456;42.680;23.260;2023-05-10T04:16:53;3.80;;;3.50;;
12784;SDS011;6456;42.680;23.260;2023-05-10T04:19:20;4.67;;;4.20;;
12784;SDS011;6456;42.680;23.260;2023-05-10T04:21:47;4.60;;;4.20;;
12784;SDS011;6456;42.680;23.260;2023-05-10T04:24:14;4.77;;;4.20;;
12784;SDS011;6456;42.680;23.260;2023-05-10T04:26:41;4.73;;;4.17;;
12784;SDS011;6456;42.680;23.260;2023-05-10T04:29:08;4.87;;;4.37;;
12784;SDS011;6456;42.680;23.260;2023-05-10T04:31:37;4.27;;;3.73;;
12784;SDS011;6456;42.680;23.260;2023-05-10T04:34:06;4.53;;;4.13;;
12784;SDS011;6456;42.680;23.260;2023-05-10T04:36:33;5.63;;;4.40;;
12784;SDS011;6456;42.680;23.260;2023-05-10T04:39:18;6.23;;;4.50;;
12784;SDS011;6456;42.680;23.260;2023-05-10T04:41:45;4.60;;;4.20;;
12784;SDS011;6456;42.680;23.260;2023-05-10T04:44:12;5.40;;;4.00;;
12784;SDS011;6456;42.680;23.260;2023-05-10T04:46:39;4.47;;;4.07;;
12784;SDS011;6456;42.680;23.260;2023-05-10T04:49:07;5.17;;;4.63;;
12784;SDS011;6456;42.680;23.260;2023-05-10T04:51:34;4.73;;;4.33;;
12784;SDS011;6456;42.680;23.260;2023-05-10T04:54:00;5.03;;;4.53;;
12784;SDS011;6456;42.680;23.260;2023-05-10T04:56:27;5.37;;;4.40;;
12784;SDS011;6456;42.680;23.260;2023-05-10T04:58:54;4.63;;;4.23;;
12784;SDS011;6456;42.680;23.260;2023-05-10T05:01:21;5.83;;;4.33;;
12784;SDS011;6456;42.680;23.260;2023-05-10T05:03:48;5.73;;;5.13;;
12784;SDS011;6456;42.680;23.260;2023-05-10T05:06:17;4.73;;;4.13;;
12784;SDS011;6456;42.680;23.260;2023-05-10T05:08:44;5.87;;;4.57;;
12784;SDS011;6456;42.680;23.260;2023-05-10T05:11:10;5.87;;;4.80;;
12784;SDS011;6456;42.680;23.260;2023-05-10T05:13:37;4.77;;;4.37;;
12784;SDS011;6456;42.680;23.260;2023-05-10T05:16:04;5.43;;;4.83;;
12784;SDS011;6456;42.680;23.260;2023-05-10T05:18:31;6.13;;;5.03;;
12784;SDS011;6456;42.680;23.260;2023-05-10T05:20:58;5.73;;;4.60;;
12784;SDS011;6456;42.680;23.260;2023-05-10T05:23:27;5.17;;;4.67;;
12784;SDS011;6456;42.680;23.260;2023-05-10T05:25:54;5.87;;;5.27;;
12784;SDS011;6456;42.680;23.260;2023-05-10T05:28:21;6.23;;;5.03;;
12784;SDS011;6456;42.680;23.260;2023-05-10T05:30:48;5.87;;;5.37;;
12784;SDS011;6456;42.680;23.260;2023-05-10T05:33:14;6.73;;;5.33;;
12784;SDS011;6456;42.680;23.260;2023-05-10T05:35:41;5.70;;;5.20;;
12784;SDS011;6456;42.680;23.260;2023-05-10T05:38:12;7.20;;;5.73;;
12784;SDS011;6456;42.680;23.260;2023-05-10T05:40:41;7.23;;;5.37;;
12784;SDS011;6456;42.680;23.260;2023-05-10T05:43:08;6.30;;;5.70;;
12784;SDS011;6456;42.680;23.260;2023-05-10T05:45:34;7.43;;;5.80;;
12784;SDS011;6456;42.680;23.260;2023-05-10T05:48:01;7.13;;;5.47;;
12784;SDS011;6456;42.680;23.260;2023-05-10T05:50:28;6.03;;;5.40;;
12784;SDS011;6456;42.680;23.260;2023-05-10T05:52:55;8.23;;;5.87;;
12784;SDS011;6456;42.680;23.260;2023-05-10T05:55:22;6.40;;;5.80;;
12784;SDS011;6456;42.680;23.260;2023-05-10T05:57:52;7.47;;;5.90;;
12784;SDS011;6456;42.680;23.260;2023-05-10T06:00:19;6.90;;;6.20;;
12784;SDS011;6456;42.680;23.260;2023-05-10T06:02:46;7.03;;;6.33;;
12784;SDS011;6456;42.680;23.260;2023-05-10T06:05:13;7.53;;;6.17;;
12784;SDS011;6456;42.680;23.260;2023-05-10T06:07:40;7.60;;;6.80;;
12784;SDS011;6456;42.680;23.260;2023-05-10T06:10:08;7.23;;;6.53;;
12784;SDS011;6456;42.680;23.260;2023-05-10T06:12:35;7.90;;;6.57;;
12784;SDS011;6456;42.680;23.260;2023-05-10T06:15:04;7.80;;;7.00;;
12784;SDS011;6456;42.680;23.260;2023-05-10T06:17:31;7.43;;;6.63;;
12784;SDS011;6456;42.680;23.260;2023-05-10T06:19:58;7.23;;;6.53;;
12784;SDS011;6456;42.680;23.260;2023-05-10T06:22:25;8.43;;;7.00;;
12784;SDS011;6456;42.680;23.260;2023-05-10T06:24:52;8.30;;;7.50;;
12784;SDS011;6456;42.680;23.260;2023-05-10T06:27:19;7.40;;;6.70;;
12784;SDS011;6456;42.680;23.260;2023-05-10T06:29:46;8.37;;;7.10;;
12784;SDS011;6456;42.680;23.260;2023-05-10T06:32:14;8.67;;;7.63;;
12784;SDS011;6456;42.680;23.260;2023-05-10T06:34:41;9.17;;;7.63;;
12784;SDS011;6456;42.680;23.260;2023-05-10T06:37:08;8.70;;;7.53;;
12784;SDS011;6456;42.680;23.260;2023-05-10T06:39:35;10.17;;;7.50;;
12784;SDS011;6456;42.680;23.260;2023-05-10T06:42:03;8.47;;;7.20;;
12784;SDS011;6456;42.680;23.260;2023-05-10T06:44:30;8.23;;;7.00;;
12784;SDS011;6456;42.680;23.260;2023-05-10T06:49:45;8.37;;;7.33;;
12784;SDS011;6456;42.680;23.260;2023-05-10T06:52:11;8.87;;;7.60;;
12784;SDS011;6456;42.680;23.260;2023-05-10T06:54:38;8.20;;;7.27;;
12784;SDS011;6456;42.680;23.260;2023-05-10T06:57:06;8.83;;;7.70;;
12784;SDS011;6456;42.680;23.260;2023-05-10T06:59:33;9.03;;;7.60;;
12784;SDS011;6456;42.680;23.260;2023-05-10T07:02:01;9.07;;;8.00;;
12784;SDS011;6456;42.680;23.260;2023-05-10T07:04:29;9.50;;;7.13;;
12784;SDS011;6456;42.680;23.260;2023-05-10T07:06:56;7.93;;;7.13;;
12784;SDS011;6456;42.680;23.260;2023-05-10T07:09:23;7.43;;;6.73;;
12784;SDS011;6456;42.680;23.260;2023-05-10T07:11:50;8.50;;;7.37;;
12784;SDS011;6456;42.680;23.260;2023-05-10T07:14:17;9.67;;;7.20;;
12784;SDS011;6456;42.680;23.260;2023-05-10T07:17:04;11.77;;;6.97;;
12784;SDS011;6456;42.680;23.260;2023-05-10T07:19:32;8.17;;;7.37;;
12784;SDS011;6456;42.680;23.260;2023-05-10T07:21:59;8.30;;;7.43;;
12784;SDS011;6456;42.680;23.260;2023-05-10T07:24:26;8.40;;;7.43;;
12784;SDS011;6456;42.680;23.260;2023-05-10T07:26:53;7.90;;;7.10;;
12784;SDS011;6456;42.680;23.260;2023-05-10T07:29:20;8.30;;;7.10;;
12784;SDS011;6456;42.680;23.260;2023-05-10T07:31:47;7.30;;;6.47;;
12784;SDS011;6456;42.680;23.260;2023-05-10T07:34:14;10.33;;;7.10;;
12784;SDS011;6456;42.680;23.260;2023-05-10T07:36:42;7.40;;;6.67;;
12784;SDS011;6456;42.680;23.260;2023-05-10T07:39:09;7.47;;;6.63;;
12784;SDS011;6456;42.680;23.260;2023-05-10T07:41:36;8.10;;;6.90;;
12784;SDS011;6456;42.680;23.260;2023-05-10T07:44:04;8.60;;;7.03;;
12784;SDS011;6456;42.680;23.260;2023-05-10T07:46:31;7.43;;;6.73;;
12784;SDS011;6456;42.680;23.260;2023-05-10T07:48:57;9.17;;;7.37;;
12784;SDS011;6456;42.680;23.260;2023-05-10T07:51:24;10.33;;;8.17;;
12784;SDS011;6456;42.680;23.260;2023-05-10T07:53:54;8.37;;;7.13;;
12784;SDS011;6456;42.680;23.260;2023-05-10T07:56:23;10.67;;;8.07;;
12784;SDS011;6456;42.680;23.260;2023-05-10T07:58:52;9.53;;;7.80;;
12784;SDS011;6456;42.680;23.260;2023-05-10T08:01:19;9.10;;;7.90;;
12784;SDS011;6456;42.680;23.260;2023-05-10T08:03:46;8.27;;;7.40;;
12784;SDS011;6456;42.680;23.260;2023-05-10T08:06:13;8.60;;;7.80;;
12784;SDS011;6456;42.680;23.260;2023-05-10T08:08:40;8.67;;;7.77;;
12784;SDS011;6456;42.680;23.260;2023-05-10T08:11:09;8.63;;;7.70;;
12784;SDS011;6456;42.680;23.260;2023-05-10T08:13:36;10.40;;;8.13;;
12784;SDS011;6456;42.680;23.260;2023-05-10T08:16:03;8.37;;;7.57;;
12784;SDS011;6456;42.680;23.260;2023-05-10T08:18:30;8.70;;;7.80;;
12784;SDS011;6456;42.680;23.260;2023-05-10T08:20:56;8.67;;;7.77;;
12784;SDS011;6456;42.680;23.260;2023-05-10T08:23:23;9.37;;;8.57;;
12784;SDS011;6456;42.680;23.260;2023-05-10T08:25:51;10.17;;;8.57;;
12784;SDS011;6456;42.680;23.260;2023-05-10T08:28:20;8.23;;;7.43;;
12784;SDS011;6456;42.680;23.260;2023-05-10T08:30:46;9.63;;;7.97;;
12784;SDS011;6456;42.680;23.260;2023-05-10T08:33:13;10.00;;;8.40;;
12784;SDS011;6456;42.680;23.260;2023-05-10T08:35:40;10.67;;;7.37;;
12784;SDS011;6456;42.680;23.260;2023-05-10T08:38:07;8.43;;;7.60;;
12784;SDS011;6456;42.680;23.260;2023-05-10T08:40:34;11.47;;;7.87;;
12784;SDS011;6456;42.680;23.260;2023-05-10T08:43:04;9.73;;;8.73;;
12784;SDS011;6456;42.680;23.260;2023-05-10T08:45:37;9.63;;;8.47;;
12784;SDS011;6456;42.680;23.260;2023-05-10T08:48:05;10.90;;;7.63;;
12784;SDS011;6456;42.680;23.260;2023-05-10T08:50:33;8.83;;;7.50;;
12784;SDS011;6456;42.680;23.260;2023-05-10T08:53:03;8.63;;;7.83;;
12784;SDS011;6456;42.680;23.260;2023-05-10T08:55:32;14.13;;;7.67;;
12784;SDS011;6456;42.680;23.260;2023-05-10T08:58:01;11.23;;;7.87;;
12784;SDS011;6456;42.680;23.260;2023-05-10T09:00:28;7.83;;;7.13;;
12784;SDS011;6456;42.680;23.260;2023-05-10T09:02:57;6.83;;;6.23;;
12784;SDS011;6456;42.680;23.260;2023-05-10T09:05:24;7.47;;;6.70;;
12784;SDS011;6456;42.680;23.260;2023-05-10T09:07:51;8.50;;;7.70;;
12784;SDS011;6456;42.680;23.260;2023-05-10T09:10:18;8.00;;;7.23;;
12784;SDS011;6456;42.680;23.260;2023-05-10T09:12:46;8.23;;;7.43;;
12784;SDS011;6456;42.680;23.260;2023-05-10T09:15:15;8.13;;;7.33;;
12784;SDS011;6456;42.680;23.260;2023-05-10T09:17:44;10.67;;;7.90;;
12784;SDS011;6456;42.680;23.260;2023-05-10T09:20:13;8.33;;;7.57;;
12784;SDS011;6456;42.680;23.260;2023-05-10T09:22:39;8.00;;;7.30;;
12784;SDS011;6456;42.680;23.260;2023-05-10T09:25:07;8.57;;;7.77;;
12784;SDS011;6456;42.680;23.260;2023-05-10T09:27:36;8.57;;;7.67;;
12784;SDS011;6456;42.680;23.260;2023-05-10T09:30:04;9.10;;;8.13;;
12784;SDS011;6456;42.680;23.260;2023-05-10T09:32:38;8.07;;;7.27;;
12784;SDS011;6456;42.680;23.260;2023-05-10T09:35:09;7.57;;;6.73;;
12784;SDS011;6456;42.680;23.260;2023-05-10T09:37:40;8.13;;;7.33;;
12784;SDS011;6456;42.680;23.260;2023-05-10T09:40:11;8.20;;;7.43;;
12784;SDS011;6456;42.680;23.260;2023-05-10T09:42:42;7.77;;;6.83;;
12784;SDS011;6456;42.680;23.260;2023-05-10T09:45:17;8.33;;;7.50;;
12784;SDS011;6456;42.680;23.260;2023-05-10T09:47:45;8.30;;;7.50;;
12784;SDS011;6456;42.680;23.260;2023-05-10T09:50:12;8.97;;;8.00;;
12784;SDS011;6456;42.680;23.260;2023-05-10T09:52:47;8.93;;;7.30;;
12784;SDS011;6456;42.680;23.260;2023-05-10T09:55:15;8.67;;;7.73;;
12784;SDS011;6456;42.680;23.260;2023-05-10T09:57:43;8.60;;;7.80;;
12784;SDS011;6456;42.680;23.260;2023-05-10T10:00:15;7.23;;;6.57;;
12784;SDS011;6456;42.680;23.260;2023-05-10T10:02:44;7.63;;;6.83;;
12784;SDS011;6456;42.680;23.260;2023-05-10T10:05:12;8.30;;;6.70;;
12784;SDS011;6456;42.680;23.260;2023-05-10T10:07:39;7.60;;;6.33;;
12784;SDS011;6456;42.680;23.260;2023-05-10T10:10:08;7.17;;;6.47;;
12784;SDS011;6456;42.680;23.260;2023-05-10T10:12:38;8.17;;;7.47;;
12784;SDS011;6456;42.680;23.260;2023-05-10T10:15:07;7.47;;;6.87;;
12784;SDS011;6456;42.680;23.260;2023-05-10T10:17:35;9.77;;;7.53;;
12784;SDS011;6456;42.680;23.260;2023-05-10T10:20:04;9.77;;;8.00;;
12784;SDS011;6456;42.680;23.260;2023-05-10T10:22:31;11.13;;;7.20;;
12784;SDS011;6456;42.680;23.260;2023-05-10T10:25:01;6.93;;;6.23;;
12784;SDS011;6456;42.680;23.260;2023-05-10T10:27:34;7.10;;;6.50;;
12784;SDS011;6456;42.680;23.260;2023-05-10T10:30:12;13.60;;;8.10;;
12784;SDS011;6456;42.680;23.260;2023-05-10T10:35:44;8.10;;;7.33;;
12784;SDS011;6456;42.680;23.260;2023-05-10T10:38:15;10.10;;;7.57;;
12784;SDS011;6456;42.680;23.260;2023-05-10T10:40:45;9.23;;;7.30;;
12784;SDS011;6456;42.680;23.260;2023-05-10T10:46:10;9.30;;;6.70;;
12784;SDS011;6456;42.680;23.260;2023-05-10T10:48:39;8.50;;;6.80;;
12784;SDS011;6456;42.680;23.260;2023-05-10T10:51:06;9.53;;;7.40;;
12784;SDS011;6456;42.680;23.260;2023-05-10T10:53:36;9.03;;;7.40;;
12784;SDS011;6456;42.680;23.260;2023-05-10T10:56:07;8.07;;;7.30;;
12784;SDS011;6456;42.680;23.260;2023-05-10T10:58:40;8.70;;;6.90;;
12784;SDS011;6456;42.680;23.260;2023-05-10T11:01:16;9.57;;;6.33;;
12784;SDS011;6456;42.680;23.260;2023-05-10T11:06:46;7.10;;;6.33;;
12784;SDS011;6456;42.680;23.260;2023-05-10T11:09:13;9.50;;;7.13;;
12784;SDS011;6456;42.680;23.260;2023-05-10T11:11:49;8.47;;;6.10;;
12784;SDS011;6456;42.680;23.260;2023-05-10T11:14:24;7.47;;;6.80;;
12784;SDS011;6456;42.680;23.260;2023-05-10T11:16:54;6.67;;;6.03;;
12784;SDS011;6456;42.680;23.260;2023-05-10T11:19:23;7.93;;;5.90;;
12784;SDS011;6456;42.680;23.260;2023-05-10T11:22:12;7.53;;;6.70;;
12784;SDS011;6456;42.680;23.260;2023-05-10T11:24:55;8.07;;;6.60;;
12784;SDS011;6456;42.680;23.260;2023-05-10T11:27:23;7.93;;;5.80;;
12784;SDS011;6456;42.680;23.260;2023-05-10T11:29:52;6.47;;;5.87;;
12784;SDS011;6456;42.680;23.260;2023-05-10T11:32:23;7.33;;;6.63;;
12784;SDS011;6456;42.680;23.260;2023-05-10T11:34:50;7.40;;;6.67;;
12784;SDS011;6456;42.680;23.260;2023-05-10T11:37:17;9.03;;;6.40;;
12784;SDS011;6456;42.680;23.260;2023-05-10T11:39:45;7.53;;;6.80;;
12784;SDS011;6456;42.680;23.260;2023-05-10T11:42:12;10.87;;;6.37;;
12784;SDS011;6456;42.680;23.260;2023-05-10T11:44:39;7.87;;;6.33;;
12784;SDS011;6456;42.680;23.260;2023-05-10T11:47:09;8.57;;;6.37;;
12784;SDS011;6456;42.680;23.260;2023-05-10T11:49:38;8.70;;;6.13;;
12784;SDS011;6456;42.680;23.260;2023-05-10T11:52:05;6.07;;;5.40;;
12784;SDS011;6456;42.680;23.260;2023-05-10T11:54:33;8.63;;;5.97;;
12784;SDS011;6456;42.680;23.260;2023-05-10T11:57:00;8.50;;;6.43;;
12784;SDS011;6456;42.680;23.260;2023-05-10T11:59:27;6.73;;;6.03;;
12784;SDS011;6456;42.680;23.260;2023-05-10T12:01:55;7.87;;;6.50;;
12784;SDS011;6456;42.680;23.260;2023-05-10T12:04:26;7.40;;;6.00;;
12784;SDS011;6456;42.680;23.260;2023-05-10T12:06:54;9.43;;;6.97;;
12784;SDS011;6456;42.680;23.260;2023-05-10T12:09:21;9.73;;;5.70;;
12784;SDS011;6456;42.680;23.260;2023-05-10T12:11:48;10.77;;;6.53;;
12784;SDS011;6456;42.680;23.260;2023-05-10T12:14:15;6.73;;;6.13;;
12784;SDS011;6456;42.680;23.260;2023-05-10T12:16:46;8.23;;;6.73;;
12784;SDS011;6456;42.680;23.260;2023-05-10T12:19:14;8.37;;;6.80;;
12784;SDS011;6456;42.680;23.260;2023-05-10T12:21:49;8.43;;;7.23;;
12784;SDS011;6456;42.680;23.260;2023-05-10T12:24:16;9.60;;;6.70;;
12784;SDS011;6456;42.680;23.260;2023-05-10T12:26:43;7.73;;;7.03;;
12784;SDS011;6456;42.680;23.260;2023-05-10T12:29:14;8.10;;;7.30;;
12784;SDS011;6456;42.680;23.260;2023-05-10T12:31:53;10.40;;;7.60;;
12784;SDS011;6456;42.680;23.260;2023-05-10T12:34:24;10.93;;;6.83;;
12784;SDS011;6456;42.680;23.260;2023-05-10T12:36:53;8.20;;;7.00;;
12784;SDS011;6456;42.680;23.260;2023-05-10T12:39:21;8.70;;;7.77;;
12784;SDS011;6456;42.680;23.260;2023-05-10T12:41:48;9.40;;;7.43;;
12784;SDS011;6456;42.680;23.260;2023-05-10T12:44:15;17.10;;;8.13;;
12784;SDS011;6456;42.680;23.260;2023-05-10T12:46:43;8.87;;;7.40;;
12784;SDS011;6456;42.680;23.260;2023-05-10T12:49:10;8.07;;;7.37;;
12784;SDS011;6456;42.680;23.260;2023-05-10T12:51:36;8.20;;;7.40;;
12784;SDS011;6456;42.680;23.260;2023-05-10T12:54:12;12.13;;;7.53;;
12784;SDS011;6456;42.680;23.260;2023-05-10T12:56:39;11.60;;;7.63;;
12784;SDS011;6456;42.680;23.260;2023-05-10T12:59:07;7.47;;;6.87;;
12784;SDS011;6456;42.680;23.260;2023-05-10T13:01:34;8.83;;;7.13;;
12784;SDS011;6456;42.680;23.260;2023-05-10T13:04:01;9.23;;;7.33;;
12784;SDS011;6456;42.680;23.260;2023-05-10T13:06:28;8.43;;;7.03;;
12784;SDS011;6456;42.680;23.260;2023-05-10T13:08:55;10.23;;;8.03;;
12784;SDS011;6456;42.680;23.260;2023-05-10T13:11:26;13.33;;;8.03;;
12784;SDS011;6456;42.680;23.260;2023-05-10T13:13:53;11.90;;;7.97;;
12784;SDS011;6456;42.680;23.260;2023-05-10T13:16:20;11.27;;;8.00;;
12784;SDS011;6456;42.680;23.260;2023-05-10T13:18:47;9.90;;;7.50;;
12784;SDS011;6456;42.680;23.260;2023-05-10T13:21:14;7.70;;;6.90;;
12784;SDS011;6456;42.680;23.260;2023-05-10T13:23:41;8.83;;;7.20;;
12784;SDS011;6456;42.680;23.260;2023-05-10T13:26:08;8.17;;;7.37;;
12784;SDS011;6456;42.680;23.260;2023-05-10T13:28:37;7.83;;;7.03;;
12784;SDS011;6456;42.680;23.260;2023-05-10T13:31:05;8.57;;;7.60;;
12784;SDS011;6456;42.680;23.260;2023-05-10T13:33:33;9.63;;;7.27;;
12784;SDS011;6456;42.680;23.260;2023-05-10T13:36:00;8.40;;;7.47;;
12784;SDS011;6456;42.680;23.260;2023-05-10T13:38:27;7.80;;;6.90;;
12784;SDS011;6456;42.680;23.260;2023-05-10T13:40:54;9.40;;;7.93;;
12784;SDS011;6456;42.680;23.260;2023-05-10T13:43:20;9.13;;;7.70;;
12784;SDS011;6456;42.680;23.260;2023-05-10T13:45:49;10.00;;;7.57;;
12784;SDS011;6456;42.680;23.260;2023-05-10T13:48:16;8.53;;;7.60;;
12784;SDS011;6456;42.680;23.260;2023-05-10T13:50:42;9.73;;;7.90;;
12784;SDS011;6456;42.680;23.260;2023-05-10T13:53:10;7.23;;;6.53;;
12784;SDS011;6456;42.680;23.260;2023-05-10T13:55:37;8.47;;;7.57;;
12784;SDS011;6456;42.680;23.260;2023-05-10T13:58:04;12.87;;;8.57;;
12784;SDS011;6456;42.680;23.260;2023-05-10T14:00:31;8.67;;;7.80;;
12784;SDS011;6456;42.680;23.260;2023-05-10T14:02:59;8.87;;;7.50;;
12784;SDS011;6456;42.680;23.260;2023-05-10T14:05:26;11.60;;;7.70;;
12784;SDS011;6456;42.680;23.260;2023-05-10T14:07:53;13.43;;;7.40;;
12784;SDS011;6456;42.680;23.260;2023-05-10T14:10:19;9.17;;;7.67;;
12784;SDS011;6456;42.680;23.260;2023-05-10T14:12:46;10.80;;;8.10;;
12784;SDS011;6456;42.680;23.260;2023-05-10T14:15:13;12.10;;;8.70;;
12784;SDS011;6456;42.680;23.260;2023-05-10T14:17:40;10.70;;;7.60;;
12784;SDS011;6456;42.680;23.260;2023-05-10T14:20:09;9.10;;;7.50;;
12784;SDS011;6456;42.680;23.260;2023-05-10T14:22:36;11.13;;;7.33;;
12784;SDS011;6456;42.680;23.260;2023-05-10T14:25:03;9.47;;;7.37;;
12784;SDS011;6456;42.680;23.260;2023-05-10T14:27:31;11.47;;;8.07;;
12784;SDS011;6456;42.680;23.260;2023-05-10T14:29:58;10.73;;;8.33;;
12784;SDS011;6456;42.680;23.260;2023-05-10T14:32:25;12.40;;;7.63;;
12784;SDS011;6456;42.680;23.260;2023-05-10T14:34:52;10.53;;;7.77;;
12784;SDS011;6456;42.680;23.260;2023-05-10T14:37:22;10.00;;;7.90;;
12784;SDS011;6456;42.680;23.260;2023-05-10T14:39:48;9.27;;;7.77;;
12784;SDS011;6456;42.680;23.260;2023-05-10T14:42:16;8.80;;;7.73;;
12784;SDS011;6456;42.680;23.260;2023-05-10T14:44:43;10.17;;;6.80;;
12784;SDS011;6456;42.680;23.260;2023-05-10T14:47:09;10.93;;;7.70;;
12784;SDS011;6456;42.680;23.260;2023-05-10T14:49:36;14.33;;;8.20;;
12784;SDS011;6456;42.680;23.260;2023-05-10T14:52:03;13.93;;;7.33;;
12784;SDS011;6456;42.680;23.260;2023-05-10T14:54:32;10.10;;;7.10;;
12784;SDS011;6456;42.680;23.260;2023-05-10T14:56:59;8.07;;;7.37;;
12784;SDS011;6456;42.680;23.260;2023-05-10T14:59:26;14.07;;;8.00;;
12784;SDS011;6456;42.680;23.260;2023-05-10T15:01:53;8.03;;;7.33;;
12784;SDS011;6456;42.680;23.260;2023-05-10T15:04:20;8.20;;;7.17;;
12784;SDS011;6456;42.680;23.260;2023-05-10T15:06:47;7.97;;;7.17;;
12784;SDS011;6456;42.680;23.260;2023-05-10T15:09:14;10.93;;;7.73;;
12784;SDS011;6456;42.680;23.260;2023-05-10T15:11:43;9.90;;;7.50;;
12784;SDS011;6456;42.680;23.260;2023-05-10T15:14:10;8.57;;;7.70;;